createdAt,value
2023-01-19T00:00:53.851Z,39.45
2023-01-19T00:03:21.796Z,34.67
2023-01-19T00:05:49.331Z,30.33
2023-01-19T00:08:16.928Z,32.72
2023-01-19T00:10:46.544Z,40.55
2023-01-19T00:13:14.403Z,31.15
2023-01-19T00:15:41.324Z,31.35
2023-01-19T00:18:10.694Z,33.97
2023-01-19T00:20:39.216Z,37.75
2023-01-19T00:23:08.298Z,30.00
2023-01-19T00:25:36.569Z,28.58
2023-01-19T00:28:03.510Z,36.00
2023-01-19T00:30:30.610Z,21.67
2023-01-19T00:32:58.115Z,31.30
2023-01-19T00:35:27.238Z,28.35
2023-01-19T00:37:54.178Z,22.35
2023-01-19T00:40:21.049Z,19.17
2023-01-19T00:42:48.662Z,22.98
2023-01-19T00:45:20.910Z,18.77
2023-01-19T00:47:50.395Z,23.63
2023-01-19T00:50:17.760Z,16.10
2023-01-19T00:52:45.133Z,22.45
2023-01-19T00:55:15.711Z,24.35
2023-01-19T00:57:43.263Z,28.33
2023-01-19T01:00:19.521Z,19.45
2023-01-19T01:02:48.084Z,22.90
2023-01-19T01:05:15.587Z,31.07
2023-01-19T01:07:44.686Z,27.52
2023-01-19T01:10:16.990Z,28.48
2023-01-19T01:12:55.657Z,28.60
2023-01-19T01:15:26.658Z,27.40
2023-01-19T01:17:53.993Z,26.57
2023-01-19T01:20:24.540Z,21.15
2023-01-19T01:22:53.452Z,19.65
2023-01-19T01:25:22.844Z,26.17
2023-01-19T01:27:50.783Z,30.92
2023-01-19T01:30:18.348Z,19.48
2023-01-19T01:32:45.310Z,26.83
2023-01-19T01:35:13.239Z,32.63
2023-01-19T01:37:40.731Z,30.85
2023-01-19T01:40:08.557Z,34.93
2023-01-19T01:42:35.528Z,26.33
2023-01-19T01:45:07.785Z,30.13
2023-01-19T01:47:46.021Z,31.85
2023-01-19T01:50:30.477Z,29.35
2023-01-19T01:53:11.155Z,32.03
2023-01-19T01:55:46.851Z,25.83
2023-01-19T01:58:16.420Z,27.65
2023-01-19T02:01:01.864Z,29.95
2023-01-19T02:03:29.598Z,29.98
2023-01-19T02:06:00.579Z,26.27
2023-01-19T02:09:06.429Z,32.20
2023-01-19T02:11:53.075Z,21.13
2023-01-19T02:14:19.974Z,24.77
2023-01-19T02:16:47.459Z,25.98
2023-01-19T02:19:19.602Z,31.05
2023-01-19T02:22:08.336Z,28.63
2023-01-19T02:24:40.144Z,29.55
2023-01-19T02:27:08.008Z,28.58
2023-01-19T02:29:35.398Z,32.13
2023-01-19T02:32:03.279Z,31.95
2023-01-19T02:34:30.690Z,24.55
2023-01-19T02:36:59.153Z,30.60
2023-01-19T02:39:38.814Z,31.30
2023-01-19T02:42:23.125Z,29.98
2023-01-19T02:44:53.630Z,32.15
2023-01-19T02:47:20.571Z,25.00
2023-01-19T02:49:57.783Z,30.73
2023-01-19T02:52:26.004Z,28.35
2023-01-19T02:55:01.818Z,24.00
2023-01-19T02:57:54.033Z,24.33
2023-01-19T03:00:51.599Z,26.30
2023-01-19T03:03:48.671Z,22.15
2023-01-19T03:06:35.728Z,29.42
2023-01-19T03:09:11.443Z,24.45
2023-01-19T03:11:46.526Z,23.13
2023-01-19T03:14:20.258Z,27.50
2023-01-19T03:16:51.552Z,21.40
2023-01-19T03:19:23.529Z,23.00
2023-01-19T03:21:57.531Z,27.58
2023-01-19T03:24:27.280Z,23.77
2023-01-19T03:27:00.725Z,25.20
2023-01-19T03:29:35.070Z,23.30
2023-01-19T03:32:07.189Z,22.55
2023-01-19T03:34:35.320Z,24.00
2023-01-19T03:37:04.861Z,21.52
2023-01-19T03:39:31.883Z,22.27
2023-01-19T03:42:03.151Z,15.00
2023-01-19T03:44:33.186Z,18.23
2023-01-19T03:47:00.922Z,17.42
2023-01-19T03:49:31.497Z,22.80
2023-01-19T03:51:59.151Z,20.02
2023-01-19T03:54:26.640Z,26.20
2023-01-19T03:56:54.127Z,17.17
2023-01-19T03:59:21.939Z,19.27
2023-01-19T04:01:49.529Z,18.85
2023-01-19T04:04:16.485Z,22.83
2023-01-19T04:06:44.205Z,17.80
2023-01-19T04:09:11.436Z,19.58
2023-01-19T04:11:38.337Z,19.17
2023-01-19T04:14:05.319Z,21.35
2023-01-19T04:16:32.309Z,14.15
2023-01-19T04:18:59.205Z,19.38
2023-01-19T04:21:26.081Z,20.77
2023-01-19T04:23:53.399Z,15.60
2023-01-19T04:26:20.394Z,20.08
2023-01-19T04:28:47.328Z,17.33
2023-01-19T04:31:14.675Z,18.45
2023-01-19T04:33:41.657Z,18.17
2023-01-19T04:36:08.992Z,21.80
2023-01-19T04:38:36.347Z,18.02
2023-01-19T04:41:03.351Z,27.50
2023-01-19T04:43:30.255Z,20.40
2023-01-19T04:45:57.203Z,24.08
2023-01-19T04:48:24.392Z,18.45
2023-01-19T04:50:52.658Z,21.30
2023-01-19T04:53:19.800Z,22.05
2023-01-19T04:55:46.948Z,26.20
2023-01-19T04:58:13.972Z,21.65
2023-01-19T05:00:40.939Z,22.27
2023-01-19T05:03:07.848Z,19.40
2023-01-19T05:05:34.832Z,25.92
2023-01-19T05:08:01.918Z,25.02
2023-01-19T05:10:28.875Z,23.58
2023-01-19T05:12:56.041Z,24.15
2023-01-19T05:15:23.606Z,23.45
2023-01-19T05:17:50.775Z,26.17
2023-01-19T05:20:17.959Z,29.23
2023-01-19T05:22:51.961Z,23.45
2023-01-19T05:25:19.371Z,23.75
2023-01-19T05:27:46.507Z,24.45
2023-01-19T05:30:14.419Z,23.35
2023-01-19T05:32:41.526Z,21.35
2023-01-19T05:35:08.898Z,23.42
2023-01-19T05:37:35.978Z,26.00
2023-01-19T05:40:03.289Z,28.30
2023-01-19T05:42:32.118Z,24.30
2023-01-19T05:45:00.067Z,25.27
2023-01-19T05:47:29.593Z,27.23
2023-01-19T05:49:56.592Z,29.00
2023-01-19T05:52:25.177Z,25.55
2023-01-19T05:54:52.285Z,26.23
2023-01-19T05:57:19.232Z,25.15
2023-01-19T05:59:46.474Z,22.27
2023-01-19T06:02:13.652Z,30.42
2023-01-19T06:04:40.791Z,27.27
2023-01-19T06:07:07.767Z,28.60
2023-01-19T06:09:34.814Z,23.92
2023-01-19T06:12:01.687Z,26.00
2023-01-19T06:14:28.590Z,27.83
2023-01-19T06:16:55.525Z,32.97
2023-01-19T06:19:22.581Z,31.05
2023-01-19T06:21:52.372Z,26.55
2023-01-19T06:24:19.860Z,26.55
2023-01-19T06:26:46.959Z,25.88
2023-01-19T06:29:14.719Z,33.40
2023-01-19T06:31:42.030Z,31.02
2023-01-19T06:34:09.335Z,26.17
2023-01-19T06:36:36.896Z,25.88
2023-01-19T06:39:05.984Z,31.70
2023-01-19T06:41:33.775Z,29.92
2023-01-19T06:44:01.225Z,27.92
2023-01-19T06:46:29.111Z,26.88
2023-01-19T06:48:56.220Z,27.65
2023-01-19T06:51:23.766Z,26.75
2023-01-19T06:53:50.655Z,27.88
2023-01-19T06:56:17.575Z,27.05
2023-01-19T06:58:47.289Z,33.47
2023-01-19T07:01:14.598Z,29.98
2023-01-19T07:03:41.542Z,33.05
2023-01-19T07:06:08.928Z,29.35
2023-01-19T07:08:37.367Z,27.88
2023-01-19T07:11:25.073Z,25.08
2023-01-19T07:13:55.727Z,24.50
2023-01-19T07:16:23.469Z,28.58
2023-01-19T07:18:51.055Z,31.42
2023-01-19T07:21:18.574Z,25.98
2023-01-19T07:23:49.049Z,26.40
2023-01-19T07:26:18.693Z,24.63
2023-01-19T07:28:47.476Z,24.48
2023-01-19T07:31:15.712Z,21.75
2023-01-19T07:33:42.716Z,27.63
2023-01-19T07:36:11.363Z,21.17
2023-01-19T07:38:38.176Z,26.30
2023-01-19T07:41:07.420Z,26.05
2023-01-19T07:43:34.482Z,25.65
2023-01-19T07:46:05.659Z,29.25
2023-01-19T07:48:32.699Z,30.13
2023-01-19T07:51:05.906Z,32.20
2023-01-19T07:53:33.031Z,26.92
2023-01-19T07:56:00.015Z,24.38
2023-01-19T07:58:27.341Z,29.42
2023-01-19T08:00:54.618Z,26.80
2023-01-19T08:03:21.792Z,24.13
2023-01-19T08:05:53.273Z,30.30
2023-01-19T08:08:20.644Z,30.00
2023-01-19T08:10:50.501Z,27.70
2023-01-19T08:13:18.691Z,27.55
2023-01-19T08:15:48.802Z,25.85
2023-01-19T08:18:15.860Z,32.10
2023-01-19T08:20:42.794Z,37.95
2023-01-19T08:23:10.662Z,32.13
2023-01-19T08:25:42.329Z,28.63
2023-01-19T08:28:10.550Z,27.27
2023-01-19T08:30:38.852Z,27.52
2023-01-19T08:33:09.305Z,31.42
2023-01-19T08:35:41.544Z,28.67
2023-01-19T08:38:10.188Z,23.15
2023-01-19T08:40:39.650Z,31.08
2023-01-19T08:43:17.472Z,28.45
2023-01-19T08:45:50.075Z,29.77
2023-01-19T08:48:22.834Z,31.67
2023-01-19T08:50:51.344Z,27.60
2023-01-19T08:53:21.139Z,33.83
2023-01-19T08:55:48.163Z,30.58
2023-01-19T08:58:15.079Z,35.03
2023-01-19T09:00:42.408Z,30.20
2023-01-19T09:03:12.953Z,25.33
2023-01-19T09:05:40.107Z,30.67
2023-01-19T09:08:09.767Z,33.10
2023-01-19T09:10:38.041Z,32.58
2023-01-19T09:13:08.519Z,31.65
2023-01-19T09:18:22.894Z,29.15
2023-01-19T09:20:50.544Z,25.20
2023-01-19T09:23:20.363Z,26.98
2023-01-19T09:25:48.063Z,29.40
2023-01-19T09:28:17.690Z,28.20
2023-01-19T09:30:44.829Z,33.50
2023-01-19T09:33:14.858Z,28.95
2023-01-19T09:35:43.313Z,34.20
2023-01-19T09:38:11.233Z,32.03
2023-01-19T09:40:44.009Z,31.65
2023-01-19T09:43:20.098Z,34.45
2023-01-19T09:46:02.765Z,32.78
2023-01-19T09:48:48.448Z,36.90
2023-01-19T09:51:38.481Z,31.50
2023-01-19T09:54:16.992Z,32.20
2023-01-19T09:56:45.726Z,31.05
2023-01-19T09:59:19.322Z,33.83
2023-01-19T10:01:58.308Z,35.60
2023-01-19T10:04:42.620Z,30.15
2023-01-19T10:07:31.667Z,27.40
2023-01-19T10:10:09.441Z,30.20
2023-01-19T10:12:43.816Z,36.35
2023-01-19T10:15:18.251Z,32.47
2023-01-19T10:18:01.566Z,35.20
2023-01-19T10:20:37.790Z,39.10
2023-01-19T10:23:17.503Z,29.08
2023-01-19T10:25:45.423Z,29.65
2023-01-19T10:28:15.607Z,30.65
2023-01-19T10:30:46.682Z,35.10
2023-01-19T10:33:15.475Z,30.60
2023-01-19T10:35:43.020Z,35.05
2023-01-19T10:38:14.457Z,40.22
2023-01-19T10:41:16.853Z,38.83
2023-01-19T10:43:45.764Z,35.35
2023-01-19T10:46:34.300Z,33.20
2023-01-19T10:49:01.905Z,36.10
2023-01-19T10:51:29.356Z,39.15
2023-01-19T10:54:02.332Z,39.42
2023-01-19T10:56:36.027Z,33.33
2023-01-19T10:59:07.189Z,38.97
2023-01-19T11:01:37.180Z,36.55
2023-01-19T11:04:33.608Z,37.50
2023-01-19T11:07:18.889Z,32.53
2023-01-19T11:09:47.514Z,40.25
2023-01-19T11:12:21.858Z,43.00
2023-01-19T11:14:50.950Z,30.45
2023-01-19T11:17:27.485Z,45.03
2023-01-19T11:20:02.320Z,37.42
2023-01-19T11:22:33.911Z,41.23
2023-01-19T11:25:03.756Z,50.33
2023-01-19T11:27:34.582Z,39.05
2023-01-19T11:30:19.380Z,41.67
2023-01-19T11:32:47.111Z,40.13
2023-01-19T11:35:40.137Z,39.60
2023-01-19T11:38:13.002Z,45.08
2023-01-19T11:40:41.995Z,41.67
2023-01-19T11:43:13.847Z,39.15
2023-01-19T11:45:41.295Z,44.70
2023-01-19T11:48:27.694Z,44.85
2023-01-19T11:50:55.347Z,35.65
2023-01-19T11:53:25.485Z,36.70
2023-01-19T11:56:04.779Z,37.47
2023-01-19T11:58:33.553Z,37.33
2023-01-19T12:01:21.056Z,43.17
2023-01-19T12:04:01.583Z,37.42
2023-01-19T12:06:33.933Z,35.58
2023-01-19T12:09:21.249Z,36.20
2023-01-19T12:11:55.714Z,34.63
2023-01-19T12:14:36.952Z,38.80
2023-01-19T12:17:07.431Z,33.47
2023-01-19T12:20:06.514Z,34.50
2023-01-19T12:22:43.436Z,36.50
2023-01-19T12:25:22.383Z,38.25
2023-01-19T12:27:50.751Z,35.22
2023-01-19T12:30:24.951Z,24.20
2023-01-19T12:32:51.976Z,33.15
2023-01-19T12:35:57.089Z,31.15
2023-01-19T12:38:29.999Z,34.38
2023-01-19T12:41:18.879Z,34.83
2023-01-19T12:43:47.168Z,38.58
2023-01-19T12:46:24.825Z,35.65
2023-01-19T12:48:53.031Z,35.58
2023-01-19T12:51:24.417Z,37.85
2023-01-19T12:53:55.335Z,30.02
2023-01-19T12:56:31.004Z,31.40
2023-01-19T12:58:58.306Z,30.00
2023-01-19T13:01:27.030Z,39.95
2023-01-19T13:04:09.808Z,35.72
2023-01-19T13:06:48.639Z,39.60
2023-01-19T13:09:33.782Z,38.85
2023-01-19T13:12:15.812Z,38.47
2023-01-19T13:14:43.730Z,36.80
2023-01-19T13:17:28.610Z,33.42
2023-01-19T13:20:27.558Z,37.00
2023-01-19T13:23:22.367Z,39.58
2023-01-19T13:25:53.567Z,42.15
2023-01-19T13:28:29.036Z,46.92
2023-01-19T13:30:59.447Z,39.28
2023-01-19T13:33:30.261Z,34.70
2023-01-19T13:35:58.980Z,39.28
2023-01-19T13:38:28.088Z,45.45
2023-01-19T13:40:56.687Z,37.65
2023-01-19T13:43:29.644Z,43.95
2023-01-19T13:45:57.022Z,51.90
2023-01-19T13:48:25.280Z,45.90
2023-01-19T13:51:00.603Z,47.10
2023-01-19T13:53:29.503Z,39.67
2023-01-19T13:56:16.729Z,39.47
2023-01-19T13:58:43.790Z,41.20
2023-01-19T14:01:29.324Z,36.53
2023-01-19T14:03:57.185Z,46.80
2023-01-19T14:06:36.027Z,43.15
2023-01-19T14:09:16.918Z,47.47
2023-01-19T14:12:04.295Z,42.80
2023-01-19T14:14:31.505Z,47.95
2023-01-19T14:16:59.617Z,32.70
2023-01-19T14:19:26.562Z,40.75
2023-01-19T14:22:04.282Z,55.75
2023-01-19T14:24:34.488Z,46.50
2023-01-19T14:27:21.209Z,51.20
2023-01-19T14:29:50.777Z,55.17
2023-01-19T14:32:23.671Z,47.53
2023-01-19T14:35:12.587Z,46.65
2023-01-19T14:37:47.604Z,42.50
2023-01-19T14:40:18.517Z,44.53
2023-01-19T14:42:57.559Z,47.30
2023-01-19T14:45:37.249Z,40.53
2023-01-19T14:48:12.169Z,35.85
2023-01-19T14:50:48.264Z,40.63
2023-01-19T14:53:26.673Z,38.22
2023-01-19T14:56:00.430Z,37.65
2023-01-19T14:58:30.274Z,35.17
2023-01-19T15:00:57.525Z,40.90
2023-01-19T15:03:38.572Z,39.00
2023-01-19T15:06:17.724Z,40.65
2023-01-19T15:08:45.740Z,37.30
2023-01-19T15:11:23.467Z,28.38
2023-01-19T15:13:51.122Z,36.83
2023-01-19T15:16:18.961Z,33.20
2023-01-19T15:18:45.945Z,29.13
2023-01-19T15:21:20.166Z,33.20
2023-01-19T15:23:47.780Z,31.70
2023-01-19T15:26:20.910Z,39.00
2023-01-19T15:28:51.444Z,42.10
2023-01-19T15:31:21.340Z,35.20
2023-01-19T15:33:48.468Z,36.67
2023-01-19T15:36:20.970Z,37.10
2023-01-19T15:38:51.002Z,35.92
2023-01-19T15:41:29.983Z,30.15
2023-01-19T15:43:57.772Z,34.28
2023-01-19T15:46:25.887Z,29.33
2023-01-19T15:48:53.727Z,29.65
2023-01-19T15:51:23.432Z,34.45
2023-01-19T15:53:50.597Z,31.65
2023-01-19T15:56:19.640Z,30.30
2023-01-19T15:58:46.991Z,30.02
2023-01-19T16:01:16.206Z,31.85
2023-01-19T16:03:43.514Z,36.05
2023-01-19T16:06:10.903Z,27.55
2023-01-19T16:08:38.106Z,29.05
2023-01-19T16:11:10.517Z,30.52
2023-01-19T16:13:37.695Z,30.13
2023-01-19T16:16:05.996Z,26.50
2023-01-19T16:18:32.977Z,29.10
2023-01-19T16:21:00.911Z,32.20
2023-01-19T16:23:27.763Z,30.48
2023-01-19T16:26:09.909Z,25.80
2023-01-19T16:28:37.959Z,24.85
2023-01-19T16:31:04.943Z,23.42
2023-01-19T16:33:31.894Z,25.48
2023-01-19T16:35:58.867Z,28.95
2023-01-19T16:38:25.925Z,24.27
2023-01-19T16:40:52.851Z,26.10
2023-01-19T16:43:19.819Z,24.63
2023-01-19T16:46:01.279Z,23.73
2023-01-19T16:48:28.636Z,27.30
2023-01-19T16:51:04.136Z,24.65
2023-01-19T16:53:32.928Z,25.95
2023-01-19T16:55:59.807Z,24.05
2023-01-19T16:58:26.783Z,26.40
2023-01-19T17:00:53.761Z,28.52
2023-01-19T17:03:20.834Z,26.02
2023-01-19T17:05:51.521Z,29.27
2023-01-19T17:08:20.331Z,27.90
2023-01-19T17:10:52.745Z,24.64
2023-01-19T17:13:19.642Z,24.48
2023-01-19T17:15:46.517Z,17.75
2023-01-19T17:18:13.532Z,26.33
2023-01-19T17:20:40.393Z,22.48
2023-01-19T17:23:07.320Z,33.40
2023-01-19T17:25:34.286Z,34.45
2023-01-19T17:28:03.972Z,23.17
2023-01-19T17:30:30.970Z,40.25
2023-01-19T17:32:57.811Z,31.77
2023-01-19T17:35:24.709Z,38.53
2023-01-19T17:37:55.078Z,33.10
2023-01-19T17:40:22.012Z,38.72
2023-01-19T17:42:48.956Z,38.72
2023-01-19T17:45:15.993Z,33.88
2023-01-19T17:47:42.850Z,38.78
2023-01-19T17:50:10.490Z,41.67
2023-01-19T17:52:38.134Z,37.38
2023-01-19T17:55:05.535Z,33.88
2023-01-19T17:57:32.466Z,46.53
2023-01-19T17:59:59.474Z,40.22
2023-01-19T18:02:26.495Z,41.22
2023-01-19T18:04:53.588Z,37.00
2023-01-19T18:07:20.518Z,44.47
2023-01-19T18:09:47.578Z,43.05
2023-01-19T18:12:14.586Z,43.28
2023-01-19T18:14:41.599Z,35.90
2023-01-19T18:17:08.677Z,46.00
2023-01-19T18:19:35.662Z,37.97
2023-01-19T18:22:02.798Z,41.45
2023-01-19T18:24:29.791Z,42.70
2023-01-19T18:26:56.939Z,41.20
2023-01-19T18:29:23.974Z,42.40
2023-01-19T18:31:50.954Z,42.42
2023-01-19T18:34:18.093Z,44.97
2023-01-19T18:36:45.129Z,52.03
2023-01-19T18:39:12.200Z,51.60
2023-01-19T18:41:41.902Z,47.03
2023-01-19T18:44:12.496Z,56.35
2023-01-19T18:46:39.500Z,51.00
2023-01-19T18:49:06.785Z,55.50
2023-01-19T18:51:33.818Z,58.45
2023-01-19T18:54:00.759Z,49.63
2023-01-19T18:56:27.764Z,57.28
2023-01-19T18:58:54.930Z,57.80
2023-01-19T19:01:32.815Z,51.83
2023-01-19T19:04:00.140Z,64.30
2023-01-19T19:06:27.619Z,59.45
2023-01-19T19:08:56.496Z,58.22
2023-01-19T19:11:25.553Z,48.78
2023-01-19T19:13:54.002Z,61.38
2023-01-19T19:16:21.124Z,59.30
2023-01-19T19:18:51.128Z,59.85
2023-01-19T19:21:20.437Z,63.22
2023-01-19T19:23:52.709Z,66.97
2023-01-19T19:26:20.321Z,67.82
2023-01-19T19:28:47.501Z,63.63
2023-01-19T19:31:18.230Z,60.42
2023-01-19T19:33:45.300Z,56.05
2023-01-19T19:36:12.763Z,62.42
2023-01-19T19:38:41.260Z,71.93
2023-01-19T19:41:09.968Z,59.28
2023-01-19T19:43:37.514Z,60.55
2023-01-19T19:46:09.723Z,61.15
2023-01-19T19:48:39.341Z,59.58
2023-01-19T19:51:17.509Z,59.50
2023-01-19T19:53:46.524Z,55.22
2023-01-19T19:56:13.854Z,48.25
2023-01-19T19:58:42.758Z,53.88
2023-01-19T20:01:21.272Z,52.15
2023-01-19T20:03:48.761Z,53.20
2023-01-19T20:06:20.832Z,51.83
2023-01-19T20:08:52.516Z,45.88
2023-01-19T20:11:26.421Z,43.42
2023-01-19T20:13:54.171Z,52.28
2023-01-19T20:16:23.196Z,45.63
2023-01-19T20:18:54.148Z,43.97
2023-01-19T20:21:25.902Z,49.85
2023-01-19T20:23:54.286Z,50.63
2023-01-19T20:26:25.315Z,44.35
2023-01-19T20:28:52.886Z,41.60
2023-01-19T20:31:21.656Z,44.47
2023-01-19T20:33:50.745Z,44.65
2023-01-19T20:36:18.470Z,47.60
2023-01-19T20:38:45.697Z,43.00
2023-01-19T20:41:13.379Z,41.42
2023-01-19T20:43:40.592Z,45.80
2023-01-19T20:46:08.047Z,46.30
2023-01-19T20:48:35.639Z,45.67
2023-01-19T20:51:08.603Z,50.92
2023-01-19T20:53:36.000Z,50.35
2023-01-19T20:56:10.103Z,53.53
2023-01-19T20:58:37.621Z,51.00
2023-01-19T21:01:25.365Z,46.13
2023-01-19T21:03:52.760Z,58.42
2023-01-19T21:06:21.343Z,50.97
2023-01-19T21:08:51.752Z,53.85
2023-01-19T21:11:21.217Z,55.42
2023-01-19T21:13:50.683Z,65.32
2023-01-19T21:16:17.706Z,61.45
2023-01-19T21:18:44.670Z,59.97
2023-01-19T21:21:28.471Z,54.63
2023-01-19T21:23:57.745Z,61.35
2023-01-19T21:26:24.636Z,54.95
2023-01-19T21:28:51.677Z,58.30
2023-01-19T21:31:18.709Z,55.78
2023-01-19T21:33:45.705Z,63.80
2023-01-19T21:36:12.703Z,63.83
2023-01-19T21:38:39.638Z,56.05
2023-01-19T21:41:08.666Z,58.53
2023-01-19T21:43:38.802Z,61.95
2023-01-19T21:46:14.433Z,65.70
2023-01-19T21:48:42.392Z,55.15
2023-01-19T21:51:10.151Z,57.00
2023-01-19T21:53:37.451Z,54.10
2023-01-19T21:56:09.470Z,50.30
2023-01-19T21:58:36.543Z,59.53
2023-01-19T22:01:05.971Z,56.38
2023-01-19T22:03:33.237Z,63.10
2023-01-19T22:06:05.138Z,54.50
2023-01-19T22:08:32.437Z,57.75
2023-01-19T22:11:06.584Z,62.03
2023-01-19T22:13:34.591Z,56.72
2023-01-19T22:16:03.816Z,60.05
2023-01-19T22:18:31.010Z,66.28
2023-01-19T22:21:08.245Z,63.30
2023-01-19T22:23:35.420Z,60.35
2023-01-19T22:26:02.314Z,53.15
2023-01-19T22:28:29.444Z,56.50
2023-01-19T22:31:06.094Z,66.28
2023-01-19T22:33:33.253Z,60.55
2023-01-19T22:36:16.947Z,55.10
2023-01-19T22:38:45.016Z,50.08
2023-01-19T22:41:17.348Z,52.92
2023-01-19T22:43:44.710Z,58.75
2023-01-19T22:46:12.161Z,62.30
2023-01-19T22:48:40.675Z,55.42
2023-01-19T22:51:07.910Z,53.83
2023-01-19T22:53:34.826Z,55.25
2023-01-19T22:56:19.511Z,47.13
2023-01-19T22:58:47.555Z,56.08
2023-01-19T23:01:25.813Z,56.05
2023-01-19T23:03:56.646Z,62.70
2023-01-19T23:06:29.936Z,52.72
2023-01-19T23:08:59.078Z,54.67
2023-01-19T23:11:28.636Z,56.90
2023-01-19T23:13:56.013Z,53.13
2023-01-19T23:16:22.956Z,63.17
2023-01-19T23:18:53.119Z,59.47
2023-01-19T23:21:22.117Z,47.17
2023-01-19T23:23:52.561Z,58.78
2023-01-19T23:26:21.835Z,62.50
2023-01-19T23:28:54.283Z,55.47
2023-01-19T23:31:26.601Z,54.65
2023-01-19T23:33:56.014Z,47.33
2023-01-19T23:36:25.283Z,48.90
2023-01-19T23:38:55.119Z,49.85
2023-01-19T23:41:22.975Z,55.90
2023-01-19T23:43:50.497Z,54.72
2023-01-19T23:46:19.493Z,54.75
2023-01-19T23:48:47.417Z,54.08
2023-01-19T23:51:25.780Z,52.55
2023-01-19T23:53:53.399Z,50.13
2023-01-19T23:56:22.873Z,46.85
2023-01-19T23:58:58.109Z,47.47
